Hammondsport, New York
Current Conditions -  °F | °C
As of 1:53 AM on Friday 19 Dec 2014 (Local Time) from KPEO Reporting Station
Overcast Overcast  
Wind Chill: 18°   Ceiling: 1400
Heat Index: 29°   Visibility: 10mi
Dew Point: 23°   Wind: 15mph
Humidity: 78%   Direction: 280°W
Pressure: 30.03"   Gusts: 22mph
Location:  42.41°N, 77.22°W
Report Text: KPEO 190653Z AUTO 28013G19KT 10SM OVC014 M02/M05 A3003 RMK AO2 SLP181 T10171050
Loading
Personal Weather Stations






























Interactive Weather Map New forecast layout! Learn more

10-Day Weather Forecast

Advertisements
Track Severe Weather on mobile